Time,TemperatureF,DewpointF,PressureIn,WindDirection,WindDirectionDegrees,WindSpeedMPH,WindSpeedGustMPH,Humidity,HourlyPrecipIn,Conditions,Clouds,dailyrainin,SoftwareType,DateUTC
2013-02-08 00:00:00,37.5,13.0,29.82,NNW,335,0.0,14.0,36,0.00,,SKC,0.00,VWS V12.07,2013-02-08 07:00:00,
2013-02-08 00:30:00,37.3,12.8,29.82,West,262,0.0,6.0,36,0.00,,SKC,0.00,VWS V12.07,2013-02-08 07:30:00,
2013-02-08 01:00:00,38.0,14.1,29.80,SE,134,4.0,9.0,37,0.00,,SKC,0.00,VWS V12.07,2013-02-08 08:00:00,
2013-02-08 01:30:00,40.8,15.3,29.76,WNW,297,1.0,7.0,35,0.00,,SKC,0.00,VWS V12.07,2013-02-08 08:30:00,
2013-02-08 02:00:00,42.9,15.1,29.75,South,182,0.0,17.0,32,0.00,,SKC,0.00,VWS V12.07,2013-02-08 09:00:00,
2013-02-08 02:30:00,42.8,15.7,29.73,WSW,243,5.0,18.0,33,0.00,,SKC,0.00,VWS V12.07,2013-02-08 09:30:00,
2013-02-08 03:00:00,42.5,16.1,29.71,SW,219,4.0,18.0,34,0.00,,SKC,0.00,VWS V12.07,2013-02-08 10:00:00,
2013-02-08 03:30:00,42.3,15.9,29.70,West,263,0.0,16.0,34,0.00,,SKC,0.00,VWS V12.07,2013-02-08 10:30:00,
2013-02-08 04:00:00,42.1,15.8,29.67,SW,223,0.0,16.0,34,0.00,,SKC,0.00,VWS V12.07,2013-02-08 11:00:00,
2013-02-08 04:01:00,42.2,15.9,29.68,WSW,244,0.0,16.0,34,0.00,,SKC,0.00,VWS V12.07,2013-02-08 11:01:00,
2013-02-08 04:30:00,42.2,15.9,29.66,WSW,252,0.0,10.0,34,0.00,,SKC,0.00,VWS V12.07,2013-02-08 11:30:00,
2013-02-08 05:00:00,42.8,15.0,29.66,WSW,257,0.0,12.0,32,0.00,,SKC,0.00,VWS V12.07,2013-02-08 12:00:00,
2013-02-08 05:30:00,42.1,15.8,29.69,WNW,299,0.0,2.0,34,0.00,,SKC,0.00,VWS V12.07,2013-02-08 12:30:00,
2013-02-08 06:00:00,41.3,15.1,29.69,West,260,0.0,6.0,34,0.00,,SKC,0.00,VWS V12.07,2013-02-08 13:00:00,
2013-02-08 06:30:00,41.8,16.2,29.67,South,188,2.0,13.0,35,0.00,,SKC,0.00,VWS V12.07,2013-02-08 13:30:00,
2013-02-08 07:00:00,39.8,17.5,29.68,WSW,239,0.0,13.0,40,0.00,,SKC,0.00,VWS V12.07,2013-02-08 14:00:00,
2013-02-08 07:30:00,37.3,17.4,29.68,SSE,155,0.0,1.0,44,0.00,,SKC,0.00,VWS V12.07,2013-02-08 14:30:00,
2013-02-08 08:00:00,36.9,18.1,29.69,ENE,77,0.0,7.0,46,0.00,,SKC,0.00,VWS V12.07,2013-02-08 15:00:00,
2013-02-08 08:30:00,37.8,19.4,29.67,SW,217,6.0,11.0,47,0.00,,SKC,0.00,VWS V12.07,2013-02-08 15:30:00,
2013-02-08 09:00:00,38.9,18.9,29.66,North,355,0.0,15.0,44,0.00,,SKC,0.00,VWS V12.07,2013-02-08 16:00:00,
2013-02-08 09:30:00,39.9,17.5,29.64,ENE,59,0.0,11.0,40,0.00,,SKC,0.00,VWS V12.07,2013-02-08 16:30:00,
2013-02-08 10:00:00,36.8,19.0,29.68,East,79,0.0,11.0,48,0.00,,SKC,0.00,VWS V12.07,2013-02-08 17:00:00,
2013-02-08 10:30:00,37.0,19.6,29.65,ENE,71,0.0,11.0,49,0.00,,SKC,0.00,VWS V12.07,2013-02-08 17:30:00,
2013-02-08 11:00:00,38.5,19.5,29.62,ENE,68,1.0,14.0,46,0.00,,SKC,0.00,VWS V12.07,2013-02-08 18:00:00,
2013-02-08 11:01:00,38.2,19.8,29.62,West,277,0.0,11.0,47,0.00,,SKC,0.00,VWS V12.07,2013-02-08 18:01:00,
2013-02-08 11:30:00,39.5,19.9,29.60,SSW,213,5.0,10.0,45,0.00,,SKC,0.00,VWS V12.07,2013-02-08 18:30:00,
2013-02-08 12:00:00,40.9,19.0,29.57,SSW,206,5.0,11.0,41,0.00,,SKC,0.00,VWS V12.07,2013-02-08 19:00:00,
2013-02-08 12:30:00,40.3,19.6,29.55,WSW,241,0.0,10.0,43,0.00,,SKC,0.00,VWS V12.07,2013-02-08 19:30:00,
2013-02-08 13:00:00,37.5,25.7,29.56,SSW,202,0.0,13.0,62,0.00,,SKC,0.00,VWS V12.07,2013-02-08 20:00:00,
2013-02-08 13:01:00,40.6,22.0,29.55,North,351,0.0,10.0,47,0.00,,SKC,0.00,VWS V12.07,2013-02-08 20:01:00,
2013-02-08 13:30:00,33.1,27.3,29.58,NW,317,0.0,2.0,79,0.00,,SKC,0.00,VWS V12.07,2013-02-08 20:30:00,
2013-02-08 14:00:00,30.9,26.9,29.60,NNW,338,0.0,2.0,85,0.00,,SKC,0.00,VWS V12.07,2013-02-08 21:00:00,
2013-02-08 14:01:00,31.0,27.0,29.60,NW,315,0.0,2.0,85,0.00,,SKC,0.00,VWS V12.07,2013-02-08 21:01:00,
2013-02-08 14:30:00,31.0,27.3,29.60,NW,304,0.0,2.0,86,0.00,,SKC,0.00,VWS V12.07,2013-02-08 21:30:00,
2013-02-08 15:00:00,32.5,29.1,29.56,NW,315,0.0,3.0,87,0.00,,SKC,0.00,VWS V12.07,2013-02-08 22:00:00,
2013-02-08 15:01:00,32.7,29.3,29.59,SSE,151,0.0,2.0,87,0.01,,SKC,0.01,VWS V12.07,2013-02-08 22:01:00,
2013-02-08 15:30:00,34.1,29.5,29.57,SSE,152,0.0,2.0,83,0.03,,SKC,0.03,VWS V12.07,2013-02-08 22:30:00,
2013-02-08 16:00:00,33.1,28.8,29.59,ENE,76,0.0,7.0,84,0.03,,SKC,0.03,VWS V12.07,2013-02-08 23:00:00,
2013-02-08 16:30:00,32.2,26.7,29.60,ENE,76,0.0,0.0,80,0.01,,SKC,0.03,VWS V12.07,2013-02-08 23:30:00,
2013-02-08 17:00:00,31.5,25.4,29.61,ENE,76,0.0,1.0,78,0.01,,SKC,0.03,VWS V12.07,2013-02-09 00:00:00,
2013-02-08 17:30:00,30.9,25.2,29.63,ENE,76,0.0,7.0,79,0.00,,SKC,0.03,VWS V12.07,2013-02-09 00:30:00,
2013-02-08 18:00:00,29.1,25.7,29.64,NE,51,0.0,7.0,87,0.00,,SKC,0.03,VWS V12.07,2013-02-09 01:00:00,
2013-02-08 18:30:00,28.8,25.7,29.66,NNW,327,0.0,0.0,88,0.00,,SKC,0.03,VWS V12.07,2013-02-09 01:30:00,
2013-02-08 19:00:00,29.5,23.2,29.66,WNW,294,0.0,1.0,77,0.00,,SKC,0.03,VWS V12.07,2013-02-09 02:00:00,
2013-02-08 19:30:00,30.4,21.1,29.66,WSW,240,0.0,3.0,68,0.00,,SKC,0.03,VWS V12.07,2013-02-09 02:30:00,
2013-02-08 20:00:00,30.7,16.0,29.66,WNW,292,0.0,3.0,54,0.00,,SKC,0.00,VWS V12.07,2013-02-09 03:00:00,
2013-02-08 20:01:00,31.0,17.6,29.66,West,261,0.0,3.0,57,0.00,,SKC,0.03,VWS V12.07,2013-02-09 03:01:00,
2013-02-08 20:30:00,29.4,21.8,29.66,NE,39,3.0,3.0,73,0.00,,SKC,0.03,VWS V12.07,2013-02-09 03:30:00,
2013-02-08 21:00:00,27.6,22.5,29.67,ENE,77,0.0,3.0,81,0.00,,SKC,0.03,VWS V12.07,2013-02-09 04:00:00,
2013-02-08 21:30:00,28.5,21.3,29.69,ENE,77,0.0,0.0,74,0.00,,SKC,0.03,VWS V12.07,2013-02-09 04:30:00,
2013-02-08 22:00:00,28.2,21.6,29.69,ENE,77,0.0,0.0,76,0.00,,SKC,0.03,VWS V12.07,2013-02-09 05:00:00,
2013-02-08 22:30:00,27.9,20.4,29.67,ENE,77,0.0,0.0,73,0.00,,SKC,0.03,VWS V12.07,2013-02-09 05:30:00,
2013-02-08 23:00:00,27.9,19.4,29.67,NE,45,0.0,0.0,70,0.00,,SKC,0.00,VWS V12.07,2013-02-09 06:00:00,
2013-02-08 23:01:00,28.5,19.3,29.66,ENE,77,0.0,0.0,68,0.00,,SKC,0.03,VWS V12.07,2013-02-09 06:01:00,
2013-02-08 23:30:00,27.3,19.5,29.65,ENE,77,0.0,0.0,72,0.00,,SKC,0.03,VWS V12.07,2013-02-09 06:30:00,